sensor_id;sensor_type;location;lat;lon;timestamp;pressure;altitude;pressure_sealevel;temperature;humidity
20825;BME280;10573;50.936;6.978;2023-02-15T00:01:39;102581.13;;;5.43;66.05
20825;BME280;10573;50.936;6.978;2023-02-15T00:04:05;102574.09;;;5.59;65.65
20825;BME280;10573;50.936;6.978;2023-02-15T00:06:31;102572.88;;;5.46;66.04
20825;BME280;10573;50.936;6.978;2023-02-15T00:08:56;102566.13;;;5.35;66.40
20825;BME280;10573;50.936;6.978;2023-02-15T00:11:22;102566.56;;;5.25;66.56
20825;BME280;10573;50.936;6.978;2023-02-15T00:14:20;102571.66;;;5.32;66.50
20825;BME280;10573;50.936;6.978;2023-02-15T00:16:47;102563.25;;;5.18;66.36
20825;BME280;10573;50.936;6.978;2023-02-15T00:19:15;102565.16;;;5.16;66.72
20825;BME280;10573;50.936;6.978;2023-02-15T00:21:41;102562.63;;;5.33;66.46
20825;BME280;10573;50.936;6.978;2023-02-15T00:24:08;102563.00;;;5.24;66.01
20825;BME280;10573;50.936;6.978;2023-02-15T00:26:35;102559.47;;;5.22;66.60
20825;BME280;10573;50.936;6.978;2023-02-15T00:29:02;102548.81;;;5.19;66.78
20825;BME280;10573;50.936;6.978;2023-02-15T00:31:29;102549.06;;;5.13;67.03
20825;BME280;10573;50.936;6.978;2023-02-15T00:33:56;102553.38;;;5.17;66.90
20825;BME280;10573;50.936;6.978;2023-02-15T00:36:25;102555.59;;;5.29;66.13
20825;BME280;10573;50.936;6.978;2023-02-15T00:38:51;102559.22;;;5.28;66.22
20825;BME280;10573;50.936;6.978;2023-02-15T00:41:16;102553.47;;;5.15;66.45
20825;BME280;10573;50.936;6.978;2023-02-15T00:43:41;102555.16;;;5.18;66.51
20825;BME280;10573;50.936;6.978;2023-02-15T00:46:07;102558.97;;;4.92;67.38
20825;BME280;10573;50.936;6.978;2023-02-15T00:48:32;102563.78;;;5.06;66.47
20825;BME280;10573;50.936;6.978;2023-02-15T00:50:59;102559.47;;;5.22;66.34
20825;BME280;10573;50.936;6.978;2023-02-15T00:53:26;102553.22;;;5.21;66.27
20825;BME280;10573;50.936;6.978;2023-02-15T00:55:52;102548.13;;;5.34;66.18
20825;BME280;10573;50.936;6.978;2023-02-15T00:58:18;102547.56;;;5.06;66.65
20825;BME280;10573;50.936;6.978;2023-02-15T01:00:45;102543.94;;;4.84;67.05
20825;BME280;10573;50.936;6.978;2023-02-15T01:03:12;102542.56;;;5.17;66.65
20825;BME280;10573;50.936;6.978;2023-02-15T01:05:38;102549.59;;;5.00;66.88
20825;BME280;10573;50.936;6.978;2023-02-15T01:08:04;102539.69;;;5.01;66.80
20825;BME280;10573;50.936;6.978;2023-02-15T01:13:05;102557.31;;;4.65;68.15
20825;BME280;10573;50.936;6.978;2023-02-15T01:15:30;102548.22;;;4.68;67.85
20825;BME280;10573;50.936;6.978;2023-02-15T01:17:56;102547.72;;;4.80;67.51
20825;BME280;10573;50.936;6.978;2023-02-15T01:20:24;102551.63;;;4.73;67.73
20825;BME280;10573;50.936;6.978;2023-02-15T01:22:50;102550.09;;;4.88;67.55
20825;BME280;10573;50.936;6.978;2023-02-15T01:25:17;102544.38;;;4.74;67.76
20825;BME280;10573;50.936;6.978;2023-02-15T01:27:43;102551.22;;;4.60;68.21
20825;BME280;10573;50.936;6.978;2023-02-15T01:30:09;102544.72;;;4.88;67.36
20825;BME280;10573;50.936;6.978;2023-02-15T01:32:35;102540.38;;;4.62;67.86
20825;BME280;10573;50.936;6.978;2023-02-15T01:35:00;102529.09;;;4.74;67.67
20825;BME280;10573;50.936;6.978;2023-02-15T01:37:26;102540.19;;;4.66;67.74
20825;BME280;10573;50.936;6.978;2023-02-15T01:39:51;102532.78;;;4.72;67.78
20825;BME280;10573;50.936;6.978;2023-02-15T01:42:23;102532.09;;;4.66;68.00
20825;BME280;10573;50.936;6.978;2023-02-15T01:44:54;102535.16;;;4.57;68.21
20825;BME280;10573;50.936;6.978;2023-02-15T01:50:04;102530.47;;;4.62;68.14
20825;BME280;10573;50.936;6.978;2023-02-15T01:52:32;102524.69;;;4.72;67.80
20825;BME280;10573;50.936;6.978;2023-02-15T01:54:59;102521.09;;;4.71;67.91
20825;BME280;10573;50.936;6.978;2023-02-15T01:57:26;102519.97;;;4.77;67.67
20825;BME280;10573;50.936;6.978;2023-02-15T01:59:56;102516.31;;;4.78;67.64
20825;BME280;10573;50.936;6.978;2023-02-15T02:02:23;102522.38;;;4.62;67.83
20825;BME280;10573;50.936;6.978;2023-02-15T02:04:56;102519.72;;;4.61;67.89
20825;BME280;10573;50.936;6.978;2023-02-15T02:07:27;102518.59;;;4.66;68.08
20825;BME280;10573;50.936;6.978;2023-02-15T02:09:53;102518.50;;;4.46;68.56
20825;BME280;10573;50.936;6.978;2023-02-15T02:12:20;102513.34;;;4.63;68.27
20825;BME280;10573;50.936;6.978;2023-02-15T02:14:47;102507.09;;;4.61;67.94
20825;BME280;10573;50.936;6.978;2023-02-15T02:17:17;102515.25;;;4.37;68.45
20825;BME280;10573;50.936;6.978;2023-02-15T02:20:26;102501.78;;;4.60;67.96
20825;BME280;10573;50.936;6.978;2023-02-15T02:22:57;102507.16;;;4.37;68.68
20825;BME280;10573;50.936;6.978;2023-02-15T02:25:45;102501.38;;;4.47;68.37
20825;BME280;10573;50.936;6.978;2023-02-15T02:33:46;102487.19;;;4.42;68.72
20825;BME280;10573;50.936;6.978;2023-02-15T02:36:35;102482.69;;;4.42;68.63
20825;BME280;10573;50.936;6.978;2023-02-15T02:44:43;102478.34;;;4.38;68.71
20825;BME280;10573;50.936;6.978;2023-02-15T02:49:44;102469.88;;;4.47;68.31
20825;BME280;10573;50.936;6.978;2023-02-15T02:54:57;102463.53;;;4.26;68.69
20825;BME280;10573;50.936;6.978;2023-02-15T02:57:24;102462.34;;;4.33;68.90
20825;BME280;10573;50.936;6.978;2023-02-15T02:59:52;102459.00;;;4.27;68.77
20825;BME280;10573;50.936;6.978;2023-02-15T03:02:24;102456.03;;;4.11;69.15
20825;BME280;10573;50.936;6.978;2023-02-15T03:04:58;102457.66;;;3.93;69.47
20825;BME280;10573;50.936;6.978;2023-02-15T03:07:29;102449.13;;;4.27;68.97
20825;BME280;10573;50.936;6.978;2023-02-15T03:09:58;102452.41;;;4.12;68.89
20825;BME280;10573;50.936;6.978;2023-02-15T03:12:30;102445.84;;;4.19;68.89
20825;BME280;10573;50.936;6.978;2023-02-15T03:15:03;102450.28;;;4.20;68.97
20825;BME280;10573;50.936;6.978;2023-02-15T03:17:32;102442.53;;;4.12;69.34
20825;BME280;10573;50.936;6.978;2023-02-15T03:20:01;102444.88;;;3.98;69.98
20825;BME280;10573;50.936;6.978;2023-02-15T03:22:33;102444.97;;;3.95;69.59
20825;BME280;10573;50.936;6.978;2023-02-15T03:25:06;102438.50;;;4.23;68.88
20825;BME280;10573;50.936;6.978;2023-02-15T03:27:38;102441.34;;;3.96;69.28
20825;BME280;10573;50.936;6.978;2023-02-15T03:30:05;102444.47;;;3.85;69.79
20825;BME280;10573;50.936;6.978;2023-02-15T03:32:33;102441.63;;;4.12;69.33
20825;BME280;10573;50.936;6.978;2023-02-15T03:35:00;102434.00;;;4.23;68.96
20825;BME280;10573;50.936;6.978;2023-02-15T03:37:54;102439.88;;;4.11;69.13
20825;BME280;10573;50.936;6.978;2023-02-15T03:40:21;102435.66;;;4.03;69.09
20825;BME280;10573;50.936;6.978;2023-02-15T03:43:18;102435.78;;;4.00;69.81
20825;BME280;10573;50.936;6.978;2023-02-15T03:45:48;102434.59;;;4.08;69.31
20825;BME280;10573;50.936;6.978;2023-02-15T03:48:32;102438.03;;;3.89;69.53
20825;BME280;10573;50.936;6.978;2023-02-15T03:51:06;102431.22;;;4.02;69.55
20825;BME280;10573;50.936;6.978;2023-02-15T03:53:52;102431.09;;;4.06;69.11
20825;BME280;10573;50.936;6.978;2023-02-15T03:56:19;102422.06;;;4.07;69.00
20825;BME280;10573;50.936;6.978;2023-02-15T03:58:45;102421.94;;;4.10;68.75
20825;BME280;10573;50.936;6.978;2023-02-15T04:01:39;102431.59;;;4.15;68.67
20825;BME280;10573;50.936;6.978;2023-02-15T04:04:34;102440.88;;;4.08;69.16
20825;BME280;10573;50.936;6.978;2023-02-15T04:07:01;102443.88;;;4.00;68.98
20825;BME280;10573;50.936;6.978;2023-02-15T04:09:27;102445.88;;;3.95;68.76
20825;BME280;10573;50.936;6.978;2023-02-15T04:12:11;102429.84;;;3.92;69.51
20825;BME280;10573;50.936;6.978;2023-02-15T04:14:37;102436.16;;;3.91;69.42
20825;BME280;10573;50.936;6.978;2023-02-15T04:17:21;102438.38;;;4.03;69.06
20825;BME280;10573;50.936;6.978;2023-02-15T04:19:46;102437.97;;;3.91;69.37
20825;BME280;10573;50.936;6.978;2023-02-15T04:22:30;102432.53;;;3.92;69.30
20825;BME280;10573;50.936;6.978;2023-02-15T04:25:13;102435.22;;;3.92;69.45
20825;BME280;10573;50.936;6.978;2023-02-15T04:27:41;102439.59;;;3.95;69.46
20825;BME280;10573;50.936;6.978;2023-02-15T04:30:08;102431.25;;;3.79;69.91
20825;BME280;10573;50.936;6.978;2023-02-15T04:32:34;102431.22;;;4.02;69.45
20825;BME280;10573;50.936;6.978;2023-02-15T04:35:00;102432.47;;;4.16;69.06
20825;BME280;10573;50.936;6.978;2023-02-15T04:37:25;102429.56;;;3.98;68.89
20825;BME280;10573;50.936;6.978;2023-02-15T04:39:51;102420.63;;;3.98;68.87
20825;BME280;10573;50.936;6.978;2023-02-15T04:42:16;102425.09;;;3.97;68.94
20825;BME280;10573;50.936;6.978;2023-02-15T04:44:42;102423.41;;;3.95;69.18
20825;BME280;10573;50.936;6.978;2023-02-15T04:47:08;102424.88;;;3.81;69.03
20825;BME280;10573;50.936;6.978;2023-02-15T04:49:33;102413.66;;;3.92;69.29
20825;BME280;10573;50.936;6.978;2023-02-15T04:51:58;102428.16;;;3.88;69.06
20825;BME280;10573;50.936;6.978;2023-02-15T04:54:24;102425.97;;;3.76;69.39
20825;BME280;10573;50.936;6.978;2023-02-15T04:56:49;102425.38;;;3.91;68.96
20825;BME280;10573;50.936;6.978;2023-02-15T04:59:15;102421.84;;;3.89;69.18
20825;BME280;10573;50.936;6.978;2023-02-15T05:01:40;102419.41;;;3.83;69.22
20825;BME280;10573;50.936;6.978;2023-02-15T05:04:07;102413.59;;;3.70;69.20
20825;BME280;10573;50.936;6.978;2023-02-15T05:06:32;102415.72;;;3.62;69.18
20825;BME280;10573;50.936;6.978;2023-02-15T05:08:58;102413.81;;;3.65;69.45
20825;BME280;10573;50.936;6.978;2023-02-15T05:11:24;102417.66;;;3.82;69.07
20825;BME280;10573;50.936;6.978;2023-02-15T05:13:50;102416.59;;;3.86;68.73
20825;BME280;10573;50.936;6.978;2023-02-15T05:16:15;102416.25;;;3.72;69.18
20825;BME280;10573;50.936;6.978;2023-02-15T05:18:41;102421.41;;;3.54;69.78
20825;BME280;10573;50.936;6.978;2023-02-15T05:21:06;102410.69;;;3.52;69.74
20825;BME280;10573;50.936;6.978;2023-02-15T05:23:32;102407.44;;;3.66;69.41
20825;BME280;10573;50.936;6.978;2023-02-15T05:25:57;102417.88;;;3.76;69.13
20825;BME280;10573;50.936;6.978;2023-02-15T05:28:41;102413.09;;;3.60;69.19
20825;BME280;10573;50.936;6.978;2023-02-15T05:31:14;102420.34;;;3.58;69.78
20825;BME280;10573;50.936;6.978;2023-02-15T05:33:41;102414.31;;;3.51;69.31
20825;BME280;10573;50.936;6.978;2023-02-15T05:36:07;102408.06;;;3.51;69.55
20825;BME280;10573;50.936;6.978;2023-02-15T05:38:33;102410.97;;;3.68;69.38
20825;BME280;10573;50.936;6.978;2023-02-15T05:40:59;102407.34;;;3.69;68.94
20825;BME280;10573;50.936;6.978;2023-02-15T05:43:25;102416.00;;;3.78;69.13
20825;BME280;10573;50.936;6.978;2023-02-15T05:45:53;102418.00;;;3.73;68.86
20825;BME280;10573;50.936;6.978;2023-02-15T05:48:20;102409.72;;;3.77;68.84
20825;BME280;10573;50.936;6.978;2023-02-15T05:50:46;102404.75;;;3.90;68.53
20825;BME280;10573;50.936;6.978;2023-02-15T05:53:11;102404.44;;;3.52;69.11
20825;BME280;10573;50.936;6.978;2023-02-15T05:55:40;102407.94;;;3.54;69.39
20825;BME280;10573;50.936;6.978;2023-02-15T05:58:07;102407.56;;;3.63;69.44
20825;BME280;10573;50.936;6.978;2023-02-15T06:00:33;102405.22;;;3.54;69.15
20825;BME280;10573;50.936;6.978;2023-02-15T06:02:59;102403.53;;;3.51;69.58
20825;BME280;10573;50.936;6.978;2023-02-15T06:05:24;102411.44;;;3.56;69.50
20825;BME280;10573;50.936;6.978;2023-02-15T06:07:50;102406.63;;;3.41;69.41
20825;BME280;10573;50.936;6.978;2023-02-15T06:10:15;102405.06;;;3.59;69.32
20825;BME280;10573;50.936;6.978;2023-02-15T06:12:41;102398.41;;;3.44;69.56
20825;BME280;10573;50.936;6.978;2023-02-15T06:15:06;102406.28;;;3.50;69.37
20825;BME280;10573;50.936;6.978;2023-02-15T06:17:32;102409.38;;;3.39;69.71
20825;BME280;10573;50.936;6.978;2023-02-15T06:19:57;102404.00;;;3.39;69.57
20825;BME280;10573;50.936;6.978;2023-02-15T06:22:22;102402.88;;;3.45;69.13
20825;BME280;10573;50.936;6.978;2023-02-15T06:24:48;102400.97;;;3.48;69.45
20825;BME280;10573;50.936;6.978;2023-02-15T06:27:14;102404.53;;;3.49;69.51
20825;BME280;10573;50.936;6.978;2023-02-15T06:29:39;102403.44;;;3.55;68.93
20825;BME280;10573;50.936;6.978;2023-02-15T06:32:05;102410.50;;;3.33;69.32
20825;BME280;10573;50.936;6.978;2023-02-15T06:34:30;102411.72;;;3.25;69.54
20825;BME280;10573;50.936;6.978;2023-02-15T06:36:56;102410.91;;;3.46;69.20
20825;BME280;10573;50.936;6.978;2023-02-15T06:39:21;102422.91;;;3.38;70.15
20825;BME280;10573;50.936;6.978;2023-02-15T06:41:46;102420.25;;;3.61;70.01
20825;BME280;10573;50.936;6.978;2023-02-15T06:44:12;102420.63;;;3.74;69.85
20825;BME280;10573;50.936;6.978;2023-02-15T06:46:37;102418.00;;;3.73;68.96
20825;BME280;10573;50.936;6.978;2023-02-15T06:49:03;102412.97;;;3.63;68.30
20825;BME280;10573;50.936;6.978;2023-02-15T06:51:28;102413.59;;;3.46;68.64
20825;BME280;10573;50.936;6.978;2023-02-15T06:53:54;102420.97;;;3.65;68.54
20825;BME280;10573;50.936;6.978;2023-02-15T06:56:19;102421.25;;;3.59;68.57
20825;BME280;10573;50.936;6.978;2023-02-15T06:58:44;102425.34;;;3.20;69.61
20825;BME280;10573;50.936;6.978;2023-02-15T07:01:11;102418.78;;;3.27;69.48
20825;BME280;10573;50.936;6.978;2023-02-15T07:03:37;102423.91;;;3.35;69.03
20825;BME280;10573;50.936;6.978;2023-02-15T07:06:04;102420.47;;;3.55;68.67
20825;BME280;10573;50.936;6.978;2023-02-15T07:08:33;102415.06;;;3.55;68.63
20825;BME280;10573;50.936;6.978;2023-02-15T07:10:58;102407.69;;;3.60;68.58
20825;BME280;10573;50.936;6.978;2023-02-15T07:13:44;102410.03;;;3.46;68.73
20825;BME280;10573;50.936;6.978;2023-02-15T07:16:10;102416.84;;;3.56;68.33
20825;BME280;10573;50.936;6.978;2023-02-15T07:18:35;102418.22;;;3.66;68.08
20825;BME280;10573;50.936;6.978;2023-02-15T07:21:01;102414.44;;;3.72;67.86
20825;BME280;10573;50.936;6.978;2023-02-15T07:23:27;102413.31;;;3.78;67.89
20825;BME280;10573;50.936;6.978;2023-02-15T07:25:59;102416.84;;;3.56;67.90
20825;BME280;10573;50.936;6.978;2023-02-15T07:28:25;102415.09;;;3.79;67.45
20825;BME280;10573;50.936;6.978;2023-02-15T07:30:51;102405.81;;;3.86;67.47
20825;BME280;10573;50.936;6.978;2023-02-15T07:33:16;102397.22;;;3.98;66.67
20825;BME280;10573;50.936;6.978;2023-02-15T07:35:57;102389.22;;;4.19;66.28
20825;BME280;10573;50.936;6.978;2023-02-15T07:38:29;102385.00;;;4.12;66.79
20825;BME280;10573;50.936;6.978;2023-02-15T07:41:00;102382.69;;;4.45;65.61
20825;BME280;10573;50.936;6.978;2023-02-15T07:43:26;102372.97;;;4.41;65.32
20825;BME280;10573;50.936;6.978;2023-02-15T07:45:52;102371.47;;;4.77;64.60
20825;BME280;10573;50.936;6.978;2023-02-15T07:48:17;102367.41;;;5.08;63.34
20825;BME280;10573;50.936;6.978;2023-02-15T07:50:42;102362.69;;;5.32;62.14
20825;BME280;10573;50.936;6.978;2023-02-15T07:53:08;102352.47;;;5.58;61.35
20825;BME280;10573;50.936;6.978;2023-02-15T07:55:33;102350.41;;;5.82;60.40
20825;BME280;10573;50.936;6.978;2023-02-15T07:57:59;102351.94;;;5.87;60.65
20825;BME280;10573;50.936;6.978;2023-02-15T08:00:24;102351.53;;;5.78;60.30
20825;BME280;10573;50.936;6.978;2023-02-15T08:02:54;102350.34;;;6.02;59.69
20825;BME280;10573;50.936;6.978;2023-02-15T08:05:42;102345.28;;;6.14;59.88
20825;BME280;10573;50.936;6.978;2023-02-15T08:08:08;102338.88;;;6.69;59.70
20825;BME280;10573;50.936;6.978;2023-02-15T08:10:56;102351.72;;;6.99;58.05
20825;BME280;10573;50.936;6.978;2023-02-15T08:13:42;102347.50;;;7.11;56.54
20825;BME280;10573;50.936;6.978;2023-02-15T08:16:18;102348.22;;;7.30;56.19
20825;BME280;10573;50.936;6.978;2023-02-15T08:18:44;102340.50;;;7.56;55.87
20825;BME280;10573;50.936;6.978;2023-02-15T08:21:09;102339.34;;;7.60;55.17
20825;BME280;10573;50.936;6.978;2023-02-15T08:23:34;102335.13;;;7.70;54.95
20825;BME280;10573;50.936;6.978;2023-02-15T08:25:59;102326.09;;;8.18;53.93
20825;BME280;10573;50.936;6.978;2023-02-15T08:28:25;102329.56;;;8.20;53.27
20825;BME280;10573;50.936;6.978;2023-02-15T08:30:50;102327.88;;;8.33;53.78
20825;BME280;10573;50.936;6.978;2023-02-15T08:33:15;102335.84;;;8.36;53.05
20825;BME280;10573;50.936;6.978;2023-02-15T08:35:43;102332.34;;;9.10;52.07
20825;BME280;10573;50.936;6.978;2023-02-15T08:38:08;102334.47;;;8.29;53.20
20825;BME280;10573;50.936;6.978;2023-02-15T08:40:33;102325.34;;;9.05;52.69
20825;BME280;10573;50.936;6.978;2023-02-15T08:42:59;102315.72;;;9.14;51.46
20825;BME280;10573;50.936;6.978;2023-02-15T08:45:25;102319.22;;;9.16;51.51
20825;BME280;10573;50.936;6.978;2023-02-15T08:47:50;102315.81;;;9.27;50.69
20825;BME280;10573;50.936;6.978;2023-02-15T08:50:15;102318.94;;;8.92;52.03
20825;BME280;10573;50.936;6.978;2023-02-15T08:52:41;102320.78;;;8.31;53.36
20825;BME280;10573;50.936;6.978;2023-02-15T08:55:06;102320.50;;;7.57;54.36
20825;BME280;10573;50.936;6.978;2023-02-15T08:57:31;102322.44;;;7.39;55.53
20825;BME280;10573;50.936;6.978;2023-02-15T08:59:56;102318.56;;;7.27;55.52
20825;BME280;10573;50.936;6.978;2023-02-15T09:02:22;102324.00;;;7.27;56.21
20825;BME280;10573;50.936;6.978;2023-02-15T09:04:47;102324.31;;;7.05;56.46
20825;BME280;10573;50.936;6.978;2023-02-15T09:07:12;102324.09;;;6.92;57.01
20825;BME280;10573;50.936;6.978;2023-02-15T09:09:38;102322.25;;;6.93;57.32
20825;BME280;10573;50.936;6.978;2023-02-15T09:12:03;102321.50;;;7.07;56.95
20825;BME280;10573;50.936;6.978;2023-02-15T09:14:28;102317.63;;;6.95;56.61
20825;BME280;10573;50.936;6.978;2023-02-15T09:16:54;102319.44;;;7.12;56.92
20825;BME280;10573;50.936;6.978;2023-02-15T09:19:20;102323.91;;;6.95;57.14
20825;BME280;10573;50.936;6.978;2023-02-15T09:21:46;102311.44;;;6.75;57.82
20825;BME280;10573;50.936;6.978;2023-02-15T09:24:12;102308.31;;;6.83;57.53
20825;BME280;10573;50.936;6.978;2023-02-15T09:26:38;102313.78;;;6.99;57.62
20825;BME280;10573;50.936;6.978;2023-02-15T09:29:07;102320.06;;;6.99;56.93
20825;BME280;10573;50.936;6.978;2023-02-15T09:31:33;102330.06;;;6.99;56.57
20825;BME280;10573;50.936;6.978;2023-02-15T09:34:01;102330.81;;;7.18;56.65
20825;BME280;10573;50.936;6.978;2023-02-15T09:36:28;102331.16;;;7.28;56.45
20825;BME280;10573;50.936;6.978;2023-02-15T09:38:54;102333.94;;;7.11;56.61
20825;BME280;10573;50.936;6.978;2023-02-15T09:49:04;102321.66;;;7.53;55.71
20825;BME280;10573;50.936;6.978;2023-02-15T09:51:37;102317.91;;;7.71;55.75
20825;BME280;10573;50.936;6.978;2023-02-15T09:54:09;102320.19;;;7.63;55.53
20825;BME280;10573;50.936;6.978;2023-02-15T09:56:48;102326.28;;;7.35;55.85
20825;BME280;10573;50.936;6.978;2023-02-15T10:10:01;102310.34;;;8.09;54.83
20825;BME280;10573;50.936;6.978;2023-02-15T10:17:41;102305.38;;;8.31;54.10
20825;BME280;10573;50.936;6.978;2023-02-15T10:25:17;102302.66;;;8.62;53.51
20825;BME280;10573;50.936;6.978;2023-02-15T10:27:45;102303.97;;;8.70;53.29
20825;BME280;10573;50.936;6.978;2023-02-15T10:30:13;102303.19;;;8.83;53.40
20825;BME280;10573;50.936;6.978;2023-02-15T10:32:59;102301.16;;;8.86;52.97
20825;BME280;10573;50.936;6.978;2023-02-15T10:50:24;102299.69;;;8.95;52.54
20825;BME280;10573;50.936;6.978;2023-02-15T11:01:13;102282.38;;;9.39;51.95
20825;BME280;10573;50.936;6.978;2023-02-15T11:06:14;102276.25;;;9.36;51.82
20825;BME280;10573;50.936;6.978;2023-02-15T11:08:49;102280.13;;;9.46;51.67
20825;BME280;10573;50.936;6.978;2023-02-15T11:11:29;102264.53;;;9.63;51.54
20825;BME280;10573;50.936;6.978;2023-02-15T11:14:00;102261.16;;;9.59;51.71
20825;BME280;10573;50.936;6.978;2023-02-15T11:16:33;102265.22;;;9.94;51.14
20825;BME280;10573;50.936;6.978;2023-02-15T11:19:11;102258.22;;;10.17;50.88
20825;BME280;10573;50.936;6.978;2023-02-15T11:21:45;102250.22;;;10.01;50.76
20825;BME280;10573;50.936;6.978;2023-02-15T11:24:15;102242.22;;;10.25;50.68
20825;BME280;10573;50.936;6.978;2023-02-15T11:26:48;102248.59;;;10.38;50.42
20825;BME280;10573;50.936;6.978;2023-02-15T11:32:03;102240.00;;;10.70;49.79
20825;BME280;10573;50.936;6.978;2023-02-15T11:34:38;102235.53;;;10.69;49.42
20825;BME280;10573;50.936;6.978;2023-02-15T11:37:16;102236.69;;;10.78;49.50
20825;BME280;10573;50.936;6.978;2023-02-15T11:39:42;102236.16;;;10.86;49.14
20825;BME280;10573;50.936;6.978;2023-02-15T11:42:13;102223.16;;;11.02;48.97
20825;BME280;10573;50.936;6.978;2023-02-15T11:44:54;102230.34;;;11.03;49.00
20825;BME280;10573;50.936;6.978;2023-02-15T11:47:21;102222.47;;;11.12;48.91
20825;BME280;10573;50.936;6.978;2023-02-15T11:49:46;102220.56;;;11.38;48.62
20825;BME280;10573;50.936;6.978;2023-02-15T11:52:13;102219.47;;;11.40;48.38
20825;BME280;10573;50.936;6.978;2023-02-15T11:54:41;102212.84;;;11.56;47.55
20825;BME280;10573;50.936;6.978;2023-02-15T12:00:14;102207.75;;;11.75;47.51
20825;BME280;10573;50.936;6.978;2023-02-15T12:02:46;102201.84;;;11.93;47.34
20825;BME280;10573;50.936;6.978;2023-02-15T12:05:18;102199.94;;;12.06;47.13
20825;BME280;10573;50.936;6.978;2023-02-15T12:07:49;102194.53;;;12.29;47.09
20825;BME280;10573;50.936;6.978;2023-02-15T12:10:18;102192.19;;;12.47;46.13
20825;BME280;10573;50.936;6.978;2023-02-15T12:12:45;102192.97;;;12.61;45.60
20825;BME280;10573;50.936;6.978;2023-02-15T12:15:11;102181.28;;;12.70;45.27
20825;BME280;10573;50.936;6.978;2023-02-15T12:17:50;102178.66;;;13.14;44.94
20825;BME280;10573;50.936;6.978;2023-02-15T12:23:15;102161.59;;;15.12;40.69
20825;BME280;10573;50.936;6.978;2023-02-15T12:25:37;102152.59;;;16.56;37.71
20825;BME280;10573;50.936;6.978;2023-02-15T12:28:19;102140.00;;;17.73;36.12
20825;BME280;10573;50.936;6.978;2023-02-15T12:30:47;102139.19;;;19.13;33.72
20825;BME280;10573;50.936;6.978;2023-02-15T12:35:56;102134.81;;;20.27;31.83
20825;BME280;10573;50.936;6.978;2023-02-15T12:38:24;102142.28;;;20.91;30.83
20825;BME280;10573;50.936;6.978;2023-02-15T12:41:04;102135.31;;;20.31;30.95
20825;BME280;10573;50.936;6.978;2023-02-15T12:43:38;102121.75;;;21.86;29.04
20825;BME280;10573;50.936;6.978;2023-02-15T12:46:18;102127.56;;;21.45;29.24
20825;BME280;10573;50.936;6.978;2023-02-15T12:48:45;102126.25;;;21.64;28.99
20825;BME280;10573;50.936;6.978;2023-02-15T12:51:14;102118.81;;;22.03;28.42
20825;BME280;10573;50.936;6.978;2023-02-15T12:53:40;102111.69;;;22.38;28.07
20825;BME280;10573;50.936;6.978;2023-02-15T12:56:08;102114.81;;;22.20;27.97
20825;BME280;10573;50.936;6.978;2023-02-15T12:58:38;102108.31;;;22.88;27.34
20825;BME280;10573;50.936;6.978;2023-02-15T13:01:17;102114.00;;;22.65;27.99
20825;BME280;10573;50.936;6.978;2023-02-15T13:04:03;102110.50;;;23.07;27.42
20825;BME280;10573;50.936;6.978;2023-02-15T13:06:34;102106.59;;;23.38;26.65
20825;BME280;10573;50.936;6.978;2023-02-15T13:09:20;102107.31;;;22.59;27.78
20825;BME280;10573;50.936;6.978;2023-02-15T13:11:46;102100.34;;;23.15;26.92
20825;BME280;10573;50.936;6.978;2023-02-15T13:14:31;102093.56;;;22.27;27.33
20825;BME280;10573;50.936;6.978;2023-02-15T13:17:00;102087.50;;;23.13;26.98
20825;BME280;10573;50.936;6.978;2023-02-15T13:19:33;102076.97;;;23.74;26.21
20825;BME280;10573;50.936;6.978;2023-02-15T13:22:12;102080.41;;;22.96;26.62
20825;BME280;10573;50.936;6.978;2023-02-15T13:24:50;102089.97;;;22.57;27.47
20825;BME280;10573;50.936;6.978;2023-02-15T13:27:20;102082.16;;;22.97;27.20
20825;BME280;10573;50.936;6.978;2023-02-15T13:29:58;102067.31;;;23.70;26.29
20825;BME280;10573;50.936;6.978;2023-02-15T13:34:55;102065.72;;;23.17;27.48
20825;BME280;10573;50.936;6.978;2023-02-15T13:37:37;102067.22;;;23.85;26.36
20825;BME280;10573;50.936;6.978;2023-02-15T13:40:20;102066.50;;;23.98;25.62
20825;BME280;10573;50.936;6.978;2023-02-15T13:43:04;102062.63;;;23.27;27.16
20825;BME280;10573;50.936;6.978;2023-02-15T13:46:07;102054.09;;;24.00;26.23
20825;BME280;10573;50.936;6.978;2023-02-15T13:51:36;102039.75;;;24.38;25.28
20825;BME280;10573;50.936;6.978;2023-02-15T13:54:32;102041.09;;;23.36;26.51
20825;BME280;10573;50.936;6.978;2023-02-15T14:03:22;102036.81;;;23.33;26.41
20825;BME280;10573;50.936;6.978;2023-02-15T14:11:13;102027.09;;;24.36;25.64
20825;BME280;10573;50.936;6.978;2023-02-15T14:16:54;102024.59;;;23.56;26.29
20825;BME280;10573;50.936;6.978;2023-02-15T14:19:46;102021.75;;;23.99;25.78
20825;BME280;10573;50.936;6.978;2023-02-15T14:22:35;102017.72;;;23.52;26.12
20825;BME280;10573;50.936;6.978;2023-02-15T14:27:42;102017.16;;;22.76;27.40
20825;BME280;10573;50.936;6.978;2023-02-15T14:30:17;102035.03;;;21.84;28.58
20825;BME280;10573;50.936;6.978;2023-02-15T14:32:47;102031.94;;;22.32;28.41
20825;BME280;10573;50.936;6.978;2023-02-15T14:35:17;102026.50;;;21.71;29.21
20825;BME280;10573;50.936;6.978;2023-02-15T14:37:56;102029.13;;;21.26;29.29
20825;BME280;10573;50.936;6.978;2023-02-15T14:48:57;102036.19;;;18.86;32.60
20825;BME280;10573;50.936;6.978;2023-02-15T14:56:43;102036.28;;;19.19;33.15
20825;BME280;10573;50.936;6.978;2023-02-15T14:59:22;102034.13;;;18.37;33.85
20825;BME280;10573;50.936;6.978;2023-02-15T15:02:13;102036.81;;;17.94;34.76
20825;BME280;10573;50.936;6.978;2023-02-15T15:05:00;102036.22;;;17.64;35.18
20825;BME280;10573;50.936;6.978;2023-02-15T15:07:38;102032.97;;;17.06;36.29
20825;BME280;10573;50.936;6.978;2023-02-15T15:10:33;102045.72;;;17.07;36.90
20825;BME280;10573;50.936;6.978;2023-02-15T15:12:53;102040.84;;;16.73;37.63
20825;BME280;10573;50.936;6.978;2023-02-15T15:18:10;102043.44;;;16.47;38.10
20825;BME280;10573;50.936;6.978;2023-02-15T15:25:45;102024.94;;;15.44;39.69